createdAt,value
2018-02-06T00:00:02.145Z,-1.9
2018-02-06T00:05:02.024Z,-1.9
2018-02-06T00:10:02.020Z,-1.9
2018-02-06T00:15:01.501Z,-1.9
2018-02-06T00:20:02.220Z,-1.9
2018-02-06T00:25:01.458Z,-1.9
2018-02-06T00:30:01.482Z,-1.9
2018-02-06T00:35:01.687Z,-1.9
2018-02-06T00:40:01.993Z,-1.9
2018-02-06T00:45:01.567Z,-2.3
2018-02-06T00:50:01.827Z,-2.3
2018-02-06T00:55:01.816Z,-2.3
2018-02-06T01:00:01.643Z,-2.3
2018-02-06T01:05:02.040Z,-2.3
2018-02-06T01:10:02.749Z,-2.3
2018-02-06T01:15:01.495Z,-2.3
2018-02-06T01:20:01.267Z,-2.3
2018-02-06T01:25:02.384Z,-2.3
2018-02-06T01:30:02.135Z,-2.3
2018-02-06T01:35:01.451Z,-2.3
2018-02-06T01:40:02.610Z,-2.3
2018-02-06T01:45:02.890Z,-3.5
2018-02-06T01:50:01.877Z,-3.5
2018-02-06T01:55:01.942Z,-3.5
2018-02-06T02:00:01.854Z,-3.5
2018-02-06T02:05:02.223Z,-3.5
2018-02-06T02:10:01.415Z,-4.1
2018-02-06T02:15:01.826Z,-4.1
2018-02-06T02:20:01.790Z,-4.3
2018-02-06T02:25:02.374Z,-4.4
2018-02-06T02:30:01.301Z,-4.4
2018-02-06T02:35:01.420Z,-4.6
2018-02-06T02:40:01.541Z,-4.6
2018-02-06T04:40:01.827Z,-6.2
2018-02-06T04:45:01.684Z,-6.2
2018-02-06T04:50:02.267Z,-6.2
2018-02-06T04:55:02.052Z,-6.2
2018-02-06T05:00:01.581Z,-6.3
2018-02-06T05:05:02.663Z,-6.3
2018-02-06T05:10:01.560Z,-6.3
2018-02-06T05:15:01.450Z,-6.3
2018-02-06T05:20:01.715Z,-6.6
2018-02-06T05:25:02.453Z,-6.6
2018-02-06T05:30:01.342Z,-6.6
2018-02-06T05:35:01.477Z,-6.6
2018-02-06T05:40:01.510Z,-6.6
2018-02-06T05:45:02.400Z,-6.6
2018-02-06T05:50:01.430Z,-6.6
2018-02-06T05:55:01.823Z,-6.6
2018-02-06T06:00:01.990Z,-6.6
2018-02-06T06:05:02.124Z,-6.6
2018-02-06T06:10:02.025Z,-6.6
2018-02-06T06:15:01.195Z,-6.6
2018-02-06T06:20:01.402Z,-6.6
2018-02-06T06:25:01.543Z,-6.6
2018-02-06T06:30:01.543Z,-6.6
2018-02-06T06:35:01.403Z,-6.6
2018-02-06T06:40:01.499Z,-6.6
2018-02-06T06:45:01.787Z,-6.6
2018-02-06T06:50:01.673Z,-6.6
2018-02-06T06:55:02.308Z,-6.6
2018-02-06T07:00:01.378Z,-6.6
2018-02-06T07:05:01.645Z,-6.6
2018-02-06T07:10:02.385Z,-6.6
2018-02-06T07:15:01.236Z,-6.6
2018-02-06T07:20:01.922Z,-6.6
2018-02-06T07:25:01.630Z,-6.6
2018-02-06T07:30:02.052Z,-6.6
2018-02-06T07:35:01.658Z,-6.6
2018-02-06T07:40:01.504Z,-6.6
2018-02-06T07:45:01.737Z,-6.6
2018-02-06T07:50:02.023Z,-6.6
2018-02-06T07:55:01.699Z,-6.6
2018-02-06T08:00:02.453Z,-6.6
2018-02-06T08:05:01.758Z,-6.3
2018-02-06T08:10:01.490Z,-6.3
2018-02-06T08:15:01.278Z,-6.3
2018-02-06T08:20:02.198Z,-6.3
2018-02-06T08:25:01.263Z,-6.3
2018-02-06T08:30:01.571Z,-6.3
2018-02-06T08:35:01.641Z,-6.3
2018-02-06T08:40:01.959Z,-6.3
2018-02-06T08:45:02.025Z,-6.3
2018-02-06T08:50:02.158Z,-6.3
2018-02-06T08:55:01.640Z,-6.3
2018-02-06T09:00:02.084Z,-6.3
2018-02-06T09:05:01.842Z,-6.3
2018-02-06T09:10:02.154Z,-6.3
2018-02-06T09:15:02.033Z,-6.3
2018-02-06T09:20:01.232Z,-6.3
2018-02-06T09:25:01.805Z,-6.3
2018-02-06T09:30:01.374Z,-6.3
2018-02-06T09:35:01.478Z,-6.3
2018-02-06T09:40:01.410Z,-6.3
2018-02-06T09:45:01.611Z,-6.3
2018-02-06T09:50:02.310Z,-6.3
2018-02-06T09:55:01.621Z,-6.3
2018-02-06T10:00:01.970Z,-6.3
2018-02-06T10:05:01.680Z,-6.3
2018-02-06T10:10:02.499Z,-6.3
2018-02-06T10:15:01.494Z,-6.3
2018-02-06T10:20:02.206Z,-6.3
2018-02-06T10:25:01.402Z,-6.3
2018-02-06T10:30:02.263Z,-6.3
2018-02-06T10:35:02.005Z,-6.3
2018-02-06T10:40:01.892Z,-2.6
2018-02-06T10:45:01.864Z,-2.6
2018-02-06T10:50:02.161Z,-2.6
2018-02-06T10:55:02.642Z,-2.6
2018-02-06T11:00:02.191Z,-2.6
2018-02-06T11:05:01.392Z,-2.6
2018-02-06T11:10:02.430Z,-1.4
2018-02-06T11:15:02.569Z,-1.4
2018-02-06T11:20:02.400Z,-1.4
2018-02-06T11:25:02.698Z,-0.7
2018-02-06T11:30:02.012Z,-0.7
2018-02-06T11:35:01.783Z,-0.7
2018-02-06T11:40:02.567Z,-0.7
2018-02-06T11:45:01.404Z,-0.7
2018-02-06T11:50:02.294Z,-0.7
2018-02-06T11:55:02.128Z,-0.7
2018-02-06T12:00:01.389Z,-0.7
2018-02-06T12:05:01.795Z,-0.7
2018-02-06T12:10:01.968Z,0.3
2018-02-06T12:15:02.023Z,0.3
2018-02-06T12:20:01.574Z,0.7
2018-02-06T12:25:02.182Z,0.7
2018-02-06T12:30:01.818Z,0.9
2018-02-06T12:35:01.826Z,1.1
2018-02-06T12:40:01.750Z,1.1
2018-02-06T12:45:01.956Z,1.1
2018-02-06T12:50:02.378Z,1.1
2018-02-06T12:55:01.831Z,1.1
2018-02-06T13:00:01.360Z,1.3
2018-02-06T13:05:01.287Z,1.3
2018-02-06T13:10:01.880Z,1.3
2018-02-06T13:15:02.102Z,1.3
2018-02-06T13:20:02.054Z,1.5
2018-02-06T13:25:02.062Z,1.5
2018-02-06T13:30:01.786Z,1.6
2018-02-06T13:35:01.898Z,1.6
2018-02-06T13:40:01.700Z,1.6
2018-02-06T13:45:02.145Z,1.6
2018-02-06T13:50:01.496Z,2.2
2018-02-06T13:55:01.593Z,2.2
2018-02-06T14:00:01.782Z,2.1
2018-02-06T14:05:02.344Z,2.1
2018-02-06T14:10:01.348Z,1.8
2018-02-06T14:15:01.364Z,1.7
2018-02-06T14:20:01.509Z,1.7
2018-02-06T14:25:02.402Z,1.7
2018-02-06T14:30:01.845Z,1.7
2018-02-06T14:35:02.953Z,1.7
2018-02-06T14:40:01.411Z,1.7
2018-02-06T14:45:02.542Z,1.7
2018-02-06T14:50:01.518Z,1.7
2018-02-06T14:55:01.616Z,1.7
2018-02-06T15:00:02.581Z,1.7
2018-02-06T15:05:02.063Z,1.7
2018-02-06T15:10:01.605Z,1.7
2018-02-06T15:15:01.915Z,0.7
2018-02-06T15:20:02.200Z,0.7
2018-02-06T15:25:01.367Z,0.7
2018-02-06T15:30:01.626Z,0.7
2018-02-06T15:35:01.631Z,0.7
2018-02-06T15:40:02.271Z,-0.2
2018-02-06T15:45:01.214Z,-0.4
2018-02-06T15:50:01.330Z,-0.4
2018-02-06T15:55:01.282Z,-0.4
2018-02-06T16:00:01.955Z,-0.4
2018-02-06T16:05:02.095Z,-0.4
2018-02-06T16:10:01.427Z,-1
2018-02-06T16:15:02.215Z,-1
2018-02-06T16:20:01.884Z,-1
2018-02-06T16:25:02.191Z,-1
2018-02-06T16:30:01.259Z,-1
2018-02-06T16:35:01.511Z,-1
2018-02-06T16:40:01.305Z,-1
2018-02-06T16:45:01.912Z,-1
2018-02-06T16:50:02.425Z,-1
2018-02-06T16:55:01.838Z,-2.5
2018-02-06T17:00:02.063Z,-2.5
2018-02-06T17:05:02.068Z,-2.5
2018-02-06T17:10:01.807Z,-2.5
2018-02-06T17:15:01.186Z,-2.5
2018-02-06T17:20:02.155Z,-2.5
2018-02-06T17:25:01.998Z,-2.5
2018-02-06T17:30:01.699Z,-3.4
2018-02-06T17:35:01.965Z,-3.4
2018-02-06T17:40:01.959Z,-3.4
2018-02-06T17:45:01.865Z,-3.4
2018-02-06T17:50:01.647Z,-3.4
2018-02-06T17:55:01.694Z,-4
2018-02-06T18:00:02.091Z,-4
2018-02-06T18:05:01.737Z,-4
2018-02-06T18:10:01.964Z,-4
2018-02-06T18:15:01.297Z,-4
2018-02-06T18:20:01.620Z,-4
2018-02-06T18:25:01.908Z,-4
2018-02-06T18:30:01.590Z,-4
2018-02-06T18:35:01.707Z,-4
2018-02-06T18:40:02.048Z,-4
2018-02-06T18:45:01.456Z,-4.7
2018-02-06T18:50:02.327Z,-4.7
2018-02-06T18:55:01.832Z,-4.7
2018-02-06T19:00:01.970Z,-4.7
2018-02-06T19:05:02.844Z,-4.7
2018-02-06T19:10:02.476Z,-4.7
2018-02-06T19:15:01.676Z,-4.7
2018-02-06T19:20:01.896Z,-4.7
2018-02-06T19:25:01.571Z,-4.7
2018-02-06T19:30:01.597Z,-4.7
2018-02-06T19:35:02.099Z,-4.7
2018-02-06T19:40:01.878Z,-4.7
2018-02-06T19:45:02.042Z,-4.7
2018-02-06T19:50:02.080Z,-4.7
2018-02-06T19:55:01.546Z,-4.7
2018-02-06T20:00:02.485Z,-4.7
2018-02-06T20:05:01.722Z,-4.7
2018-02-06T20:10:01.830Z,-4.7
2018-02-06T20:15:01.198Z,-4.7
2018-02-06T20:20:01.562Z,-4.7
2018-02-06T20:25:01.651Z,-6.2
2018-02-06T20:30:01.738Z,-6.2
2018-02-06T20:35:02.166Z,-6.2
2018-02-06T20:40:01.315Z,-6.2
2018-02-06T20:45:01.753Z,-6.2
2018-02-06T20:50:01.860Z,-6.5
2018-02-06T20:55:01.586Z,-6.7
2018-02-06T21:00:01.214Z,-6.7
2018-02-06T21:05:01.885Z,-6.8
2018-02-06T21:10:01.608Z,-6.8
2018-02-06T21:15:01.962Z,-6.9
2018-02-06T21:20:02.098Z,-6.9
2018-02-06T21:25:01.508Z,-6.9
2018-02-06T21:30:02.444Z,-7.1
2018-02-06T21:35:01.997Z,-7.1
2018-02-06T21:40:02.049Z,-7.1
2018-02-06T21:45:01.229Z,-7.1
2018-02-06T21:50:02.201Z,-7.1
2018-02-06T21:55:01.573Z,-7.3
2018-02-06T22:00:01.283Z,-7.4
2018-02-06T22:05:01.218Z,-7.4
2018-02-06T22:10:02.478Z,-7.5
2018-02-06T22:15:01.773Z,-7.5
2018-02-06T22:20:01.528Z,-7.5
2018-02-06T22:25:01.878Z,-7.5
2018-02-06T22:30:02.073Z,-7.5
2018-02-06T22:35:01.883Z,-7.7
2018-02-06T22:40:01.636Z,-7.8
2018-02-06T22:45:01.334Z,-7.8
2018-02-06T22:50:02.845Z,-7.8
2018-02-06T22:55:01.789Z,-7.8
2018-02-06T23:00:01.354Z,-7.8
2018-02-06T23:05:01.227Z,-7.8
2018-02-06T23:10:02.568Z,-8
2018-02-06T23:15:01.470Z,-8.1
2018-02-06T23:20:01.713Z,-8.1
2018-02-06T23:25:01.444Z,-8.1
2018-02-06T23:30:01.864Z,-8.1
2018-02-06T23:35:02.155Z,-8.1
2018-02-06T23:40:01.561Z,-8.3
2018-02-06T23:45:02.268Z,-8.3
2018-02-06T23:50:01.857Z,-8.3
2018-02-06T23:55:01.760Z,-8.3
